Time;durP1;ratioP1;P1;durP2;ratioP2;P2;SDS_P1;SDS_P2;PMS_P1;PMS_P2;Temp;Humidity;BMP_temperature;BMP_pressure;BME280_temperature;BME280_humidity;BME280_pressure;Samples;Min_cycle;Max_cycle;Signal;HPM_P1;HPM_P2
2023/06/11 03:00:58;;;;;;;7.47;4.70;;;24.80;46.60;;;;;;5687751;23;45910;-58
2023/06/11 03:03:23;;;;;;;6.60;4.40;;;24.80;46.70;;;;;;4865259;28;46714;-59
2023/06/11 03:05:49;;;;;;;6.20;4.35;;;24.80;46.70;;;;;;4911381;28;45413;-58
2023/06/11 03:08:15;;;;;;;6.03;3.90;;;24.80;46.60;;;;;;4930095;28;45277;-63
2023/06/11 03:10:40;;;;;;;4.97;4.20;;;24.80;46.70;;;;;;4919755;28;45292;-61
2023/06/11 03:13:06;;;;;;;6.70;4.40;;;24.80;46.70;;;;;;4909269;28;45753;-59
2023/06/11 03:15:31;;;;;;;5.82;4.35;;;24.80;46.60;;;;;;4895279;28;46863;-59
2023/06/11 03:17:57;;;;;;;5.70;4.18;;;24.80;46.70;;;;;;4861981;28;45259;-57
2023/06/11 03:20:23;;;;;;;6.20;3.90;;;24.80;46.60;;;;;;4889234;28;45778;-60
2023/06/11 03:22:48;;;;;;;3.95;3.60;;;24.80;46.60;;;;;;4902766;28;45411;-59
2023/06/11 03:25:14;;;;;;;4.38;3.60;;;24.80;46.60;;;;;;4889928;28;45762;-61
2023/06/11 03:27:39;;;;;;;6.45;4.25;;;24.70;46.60;;;;;;4894880;28;45094;-59
2023/06/11 03:30:11;;;;;;;6.50;3.97;;;24.70;46.60;;;;;;4887142;28;46160;-62
2023/06/11 03:32:38;;;;;;;7.93;4.22;;;24.80;46.60;;;;;;4885675;28;45283;-60
2023/06/11 03:35:04;;;;;;;7.40;3.90;;;24.80;46.60;;;;;;4908591;28;45484;-62
2023/06/11 03:37:30;;;;;;;5.45;4.00;;;24.80;46.60;;;;;;4913807;28;45503;-60
2023/06/11 03:39:55;;;;;;;4.43;4.00;;;24.70;46.60;;;;;;4910184;28;45364;-60
2023/06/11 03:42:21;;;;;;;5.25;4.00;;;24.70;46.60;;;;;;4904624;28;45408;-60
2023/06/11 03:44:48;;;;;;;4.70;4.10;;;24.70;46.60;;;;;;4878495;28;45307;-59
2023/06/11 03:47:14;;;;;;;4.80;3.55;;;24.70;46.60;;;;;;4868342;28;45111;-60
2023/06/11 03:49:39;;;;;;;5.45;3.63;;;24.70;46.60;;;;;;4911851;28;45227;-61
2023/06/11 03:52:05;;;;;;;4.13;3.50;;;24.70;46.60;;;;;;4906717;28;45392;-63
2023/06/11 03:54:31;;;;;;;6.35;3.63;;;24.70;46.70;;;;;;4899780;28;45362;-61
2023/06/11 03:56:57;;;;;;;5.55;4.13;;;24.70;46.60;;;;;;4891628;28;45226;-58
2023/06/11 03:59:23;;;;;;;4.88;3.90;;;24.70;46.60;;;;;;4910423;28;45450;-60
2023/06/11 04:01:48;;;;;;;4.78;4.32;;;24.70;46.70;;;;;;4902312;28;45680;-61
2023/06/11 04:04:14;;;;;;;5.53;3.72;;;24.70;46.70;;;;;;4893096;28;45664;-60
2023/06/11 04:06:40;;;;;;;5.20;3.85;;;24.60;46.70;;;;;;4889723;28;45491;-60
2023/06/11 04:09:06;;;;;;;4.80;3.88;;;24.70;46.70;;;;;;4875436;28;45454;-62
2023/06/11 04:11:31;;;;;;;4.95;4.30;;;24.60;46.70;;;;;;4893574;28;45287;-60
2023/06/11 04:13:57;;;;;;;3.58;3.28;;;24.70;46.70;;;;;;4912427;28;45277;-60
2023/06/11 04:16:23;;;;;;;4.70;4.25;;;24.60;46.70;;;;;;4889046;28;45287;-58
2023/06/11 04:18:48;;;;;;;4.45;3.70;;;24.70;46.70;;;;;;4893632;28;44857;-61
2023/06/11 04:21:14;;;;;;;4.93;4.22;;;24.60;46.70;;;;;;4873881;28;45691;-62
2023/06/11 04:23:40;;;;;;;4.57;4.00;;;24.70;46.70;;;;;;4883174;28;46821;-59
2023/06/11 04:26:10;;;;;;;4.68;4.25;;;24.70;46.70;;;;;;4908436;28;45677;-60
2023/06/11 04:28:36;;;;;;;5.05;4.57;;;24.60;46.70;;;;;;4882334;28;45318;-59
2023/06/11 04:31:06;;;;;;;4.47;3.85;;;24.70;46.80;;;;;;4901779;28;45035;-58
2023/06/11 04:33:36;;;;;;;4.78;3.95;;;24.60;46.80;;;;;;4879480;28;45668;-59
2023/06/11 04:36:04;;;;;;;4.88;4.05;;;24.60;46.90;;;;;;4892228;28;45702;-58
2023/06/11 04:38:30;;;;;;;4.57;4.13;;;24.60;46.90;;;;;;4911264;28;46387;-61
2023/06/11 04:40:56;;;;;;;5.60;4.03;;;24.60;46.90;;;;;;4923729;28;45429;-58
2023/06/11 04:43:23;;;;;;;5.00;4.45;;;24.60;47.00;;;;;;4908287;28;46073;-59
2023/06/11 04:45:55;;;;;;;4.57;4.18;;;24.60;47.00;;;;;;4890241;28;45447;-63
2023/06/11 04:48:21;;;;;;;4.15;3.67;;;24.60;47.10;;;;;;4916284;28;45294;-58
2023/06/11 04:50:51;;;;;;;6.88;4.47;;;24.60;47.10;;;;;;4908881;28;45204;-58
2023/06/11 04:53:21;;;;;;;6.25;3.88;;;24.60;47.10;;;;;;4895539;28;45559;-58
2023/06/11 04:55:51;;;;;;;5.03;4.10;;;24.60;47.20;;;;;;4926310;28;45194;-59
2023/06/11 04:58:20;;;;;;;6.47;4.57;;;24.70;47.30;;;;;;4907862;28;45098;-58
2023/06/11 05:00:47;;;;;;;4.78;4.28;;;24.60;47.30;;;;;;4881189;28;45660;-59
2023/06/11 05:03:12;;;;;;;5.22;4.45;;;24.60;47.40;;;;;;4887700;28;45417;-59
2023/06/11 05:05:38;;;;;;;6.05;4.13;;;24.60;47.50;;;;;;4890923;28;44760;-59
2023/06/11 05:08:04;;;;;;;4.68;4.15;;;24.60;47.50;;;;;;4892338;28;45561;-59
2023/06/11 05:10:30;;;;;;;5.20;3.88;;;24.60;47.60;;;;;;4907223;28;45837;-60
2023/06/11 05:12:55;;;;;;;4.97;4.10;;;24.60;47.60;;;;;;4898358;28;46360;-58
2023/06/11 05:15:21;;;;;;;4.10;3.70;;;24.60;47.60;;;;;;4902706;28;45340;-58
2023/06/11 05:17:46;;;;;;;4.25;3.85;;;24.60;47.60;;;;;;4908861;28;45139;-60
2023/06/11 05:20:13;;;;;;;4.90;4.40;;;24.60;47.70;;;;;;4923545;28;45683;-59
2023/06/11 05:22:39;;;;;;;4.45;3.72;;;24.70;47.80;;;;;;4905794;28;47530;-60
2023/06/11 05:25:05;;;;;;;4.05;3.67;;;24.70;47.80;;;;;;4894859;28;45327;-61
2023/06/11 05:27:31;;;;;;;4.72;4.22;;;24.70;47.70;;;;;;4922840;28;45311;-60
2023/06/11 05:29:57;;;;;;;4.63;4.10;;;24.70;47.80;;;;;;4924432;28;45238;-60
2023/06/11 05:32:22;;;;;;;7.22;3.92;;;24.70;47.80;;;;;;4885489;28;45304;-59
2023/06/11 05:34:51;;;;;;;7.43;4.60;;;24.70;47.80;;;;;;4910268;28;45490;-60
2023/06/11 05:37:16;;;;;;;5.00;4.50;;;24.80;47.80;;;;;;4891806;28;45158;-59
2023/06/11 05:39:42;;;;;;;6.05;4.25;;;24.80;47.80;;;;;;4879433;28;45516;-58
2023/06/11 05:42:08;;;;;;;7.40;4.25;;;24.80;47.80;;;;;;4909642;28;45301;-59
2023/06/11 05:44:33;;;;;;;5.10;4.60;;;24.80;47.90;;;;;;4893333;28;45277;-60
2023/06/11 05:46:59;;;;;;;5.47;4.35;;;24.80;48.00;;;;;;4902968;28;45420;-58
2023/06/11 05:49:24;;;;;;;5.28;4.22;;;24.80;48.10;;;;;;4893412;28;46666;-59
2023/06/11 05:51:50;;;;;;;5.68;4.50;;;24.80;47.90;;;;;;4892590;28;45191;-59
2023/06/11 05:54:15;;;;;;;5.65;4.45;;;24.80;47.80;;;;;;4907522;28;45338;-60
2023/06/11 05:56:41;;;;;;;4.05;3.42;;;24.90;47.80;;;;;;4889154;28;45162;-59
2023/06/11 05:59:07;;;;;;;6.20;4.28;;;24.90;47.80;;;;;;4908479;28;44867;-59
2023/06/11 06:01:36;;;;;;;4.95;4.45;;;24.90;47.80;;;;;;4870174;28;47117;-59
2023/06/11 06:04:02;;;;;;;5.38;4.15;;;24.90;47.80;;;;;;4899105;28;45556;-60
2023/06/11 06:06:29;;;;;;;6.30;4.90;;;24.90;47.70;;;;;;4862798;29;45776;-60
2023/06/11 06:08:55;;;;;;;9.55;4.45;;;25.00;47.80;;;;;;4871205;29;45289;-60
2023/06/11 06:11:21;;;;;;;4.72;4.22;;;25.00;47.70;;;;;;4863172;29;45373;-60
2023/06/11 06:13:46;;;;;;;5.07;4.13;;;25.00;47.80;;;;;;4870571;29;44849;-60
2023/06/11 06:16:12;;;;;;;7.53;4.18;;;25.00;47.80;;;;;;4859373;29;45282;-57
2023/06/11 06:18:38;;;;;;;5.30;4.72;;;25.00;47.80;;;;;;4875833;28;45345;-57
2023/06/11 06:21:04;;;;;;;5.65;4.63;;;25.10;47.70;;;;;;4864045;29;45580;-59
2023/06/11 06:23:31;;;;;;;4.82;4.28;;;25.10;47.50;;;;;;4872494;28;63678;-58
2023/06/11 06:25:58;;;;;;;5.78;4.80;;;25.10;47.40;;;;;;4884524;28;45228;-60
2023/06/11 06:28:24;;;;;;;5.63;4.40;;;25.10;47.30;;;;;;4916610;28;44899;-60
2023/06/11 06:30:49;;;;;;;7.35;4.72;;;25.10;47.30;;;;;;4880059;28;46094;-59
2023/06/11 06:33:16;;;;;;;8.05;4.20;;;25.20;47.30;;;;;;4891211;28;44911;-60
2023/06/11 06:35:41;;;;;;;5.85;4.28;;;25.20;47.20;;;;;;4882078;28;45308;-60
2023/06/11 06:38:07;;;;;;;5.32;4.43;;;25.20;47.10;;;;;;4887644;28;45154;-58
2023/06/11 06:40:33;;;;;;;4.88;4.15;;;25.20;47.00;;;;;;4882998;28;45485;-61
2023/06/11 06:42:58;;;;;;;6.10;4.50;;;25.30;47.00;;;;;;4890143;28;45212;-60
2023/06/11 06:45:24;;;;;;;9.90;4.40;;;25.30;46.90;;;;;;4882186;28;45271;-58
2023/06/11 06:47:50;;;;;;;5.32;4.10;;;25.40;46.80;;;;;;4869358;28;45503;-59
2023/06/11 06:50:16;;;;;;;5.28;4.22;;;25.40;46.80;;;;;;4883268;28;45377;-60
2023/06/11 06:52:42;;;;;;;5.97;4.38;;;25.40;46.70;;;;;;4877819;29;45112;-60
2023/06/11 06:55:08;;;;;;;5.30;4.57;;;25.50;46.70;;;;;;4886398;28;45366;-60
2023/06/11 06:57:34;;;;;;;4.68;4.20;;;25.50;46.40;;;;;;4882904;28;45001;-60
2023/06/11 06:59:59;;;;;;;6.47;4.40;;;25.60;46.10;;;;;;4883781;28;45844;-59
2023/06/11 07:02:25;;;;;;;4.88;4.03;;;25.60;45.90;;;;;;4876177;28;44974;-60
2023/06/11 07:04:51;;;;;;;5.45;4.40;;;25.60;45.80;;;;;;4888756;28;45239;-59
2023/06/11 07:07:16;;;;;;;6.40;4.15;;;25.70;45.50;;;;;;4884392;28;44839;-60
2023/06/11 07:09:42;;;;;;;5.43;4.38;;;25.70;45.20;;;;;;4884387;28;45302;-59
2023/06/11 07:12:08;;;;;;;5.57;3.65;;;25.70;45.20;;;;;;4883843;28;46130;-61
2023/06/11 07:14:34;;;;;;;7.15;3.65;;;25.70;45.10;;;;;;4892639;28;44841;-59
2023/06/11 07:16:59;;;;;;;6.72;3.75;;;25.80;45.20;;;;;;4880271;28;44655;-60
2023/06/11 07:19:25;;;;;;;4.25;3.67;;;25.80;45.00;;;;;;4883335;28;45513;-59
2023/06/11 07:21:50;;;;;;;4.32;3.88;;;25.80;45.00;;;;;;4887521;28;45369;-59
2023/06/11 07:24:16;;;;;;;5.75;4.15;;;25.90;44.90;;;;;;4894069;28;45474;-60
2023/06/11 07:26:42;;;;;;;4.75;3.80;;;25.90;44.90;;;;;;4886760;28;45254;-58
2023/06/11 07:29:08;;;;;;;4.93;4.10;;;25.90;44.80;;;;;;4888117;28;46279;-60
2023/06/11 07:31:33;;;;;;;4.13;3.30;;;26.00;44.80;;;;;;4881571;28;45310;-59
2023/06/11 07:33:59;;;;;;;5.10;3.63;;;26.00;44.80;;;;;;4894919;28;44813;-61
2023/06/11 07:36:24;;;;;;;6.07;3.85;;;26.10;44.70;;;;;;4884880;28;44887;-59
2023/06/11 07:38:50;;;;;;;4.30;3.90;;;26.10;44.50;;;;;;4884889;28;45532;-58
2023/06/11 07:41:15;;;;;;;5.65;3.95;;;26.10;44.30;;;;;;4881633;28;45878;-58
2023/06/11 07:43:41;;;;;;;7.15;4.07;;;26.20;44.10;;;;;;4893632;28;45583;-58
2023/06/11 07:46:06;;;;;;;4.40;3.85;;;26.20;43.90;;;;;;4884676;28;45260;-58
2023/06/11 07:48:32;;;;;;;3.75;3.45;;;26.20;43.80;;;;;;4891046;28;46463;-57
2023/06/11 07:50:57;;;;;;;5.03;4.15;;;26.30;43.70;;;;;;4871735;28;45354;-59
2023/06/11 07:53:24;;;;;;;4.20;3.65;;;26.30;43.30;;;;;;4892721;28;45112;-59
2023/06/11 07:55:55;;;;;;;5.38;3.90;;;26.40;43.20;;;;;;4888322;28;45571;-61
2023/06/11 07:58:21;;;;;;;6.72;3.78;;;26.40;42.90;;;;;;4888365;28;45576;-68
2023/06/11 08:00:46;;;;;;;10.27;3.75;;;26.40;42.70;;;;;;4881430;28;45514;-59
2023/06/11 08:03:12;;;;;;;4.53;3.90;;;26.40;42.40;;;;;;4899345;28;45123;-60
2023/06/11 08:05:37;;;;;;;11.52;4.35;;;26.50;42.30;;;;;;4892392;28;44719;-57
2023/06/11 08:08:03;;;;;;;8.20;4.25;;;26.50;42.30;;;;;;4915270;28;45443;-61
2023/06/11 08:10:29;;;;;;;4.25;3.85;;;26.50;42.20;;;;;;4888852;28;45111;-59
2023/06/11 08:12:55;;;;;;;5.10;4.25;;;26.50;42.10;;;;;;4913722;28;44930;-60
2023/06/11 08:15:21;;;;;;;5.85;3.78;;;26.60;41.90;;;;;;4907553;28;44897;-59
2023/06/11 08:17:46;;;;;;;5.10;4.50;;;26.60;41.70;;;;;;4904442;28;46037;-59
2023/06/11 08:20:12;;;;;;;6.00;3.78;;;26.60;41.80;;;;;;4920919;28;45111;-61
2023/06/11 08:22:39;;;;;;;5.20;4.05;;;26.60;41.80;;;;;;4902417;28;45857;-61
2023/06/11 08:25:05;;;;;;;5.70;4.10;;;26.60;41.80;;;;;;4909060;28;45715;-65
2023/06/11 08:27:31;;;;;;;8.55;4.63;;;26.60;42.50;;;;;;4869701;28;46503;-60
2023/06/11 08:29:56;;;;;;;5.53;4.22;;;26.60;41.80;;;;;;4910967;28;44728;-59
2023/06/11 08:32:22;;;;;;;5.97;4.10;;;26.70;41.90;;;;;;4923733;28;45520;-60
2023/06/11 08:34:47;;;;;;;5.50;4.05;;;26.70;41.90;;;;;;4903390;28;45228;-60
2023/06/11 08:37:13;;;;;;;5.55;4.20;;;26.70;41.80;;;;;;4908759;28;46064;-62
2023/06/11 08:39:38;;;;;;;5.40;4.07;;;26.70;41.80;;;;;;4881845;28;45467;-60
2023/06/11 08:42:04;;;;;;;5.53;4.78;;;26.70;41.80;;;;;;4875392;28;45928;-60
2023/06/11 08:44:30;;;;;;;5.03;3.90;;;26.70;41.80;;;;;;4907839;28;45444;-60
2023/06/11 08:46:56;;;;;;;6.18;3.83;;;26.80;41.80;;;;;;4880407;28;46280;-60
2023/06/11 08:49:22;;;;;;;4.82;4.05;;;26.80;41.80;;;;;;4932213;28;45186;-58
2023/06/11 08:51:48;;;;;;;6.15;4.10;;;26.80;41.80;;;;;;4896055;28;45327;-60
2023/06/11 08:54:14;;;;;;;6.65;3.75;;;26.80;41.90;;;;;;4880617;28;45589;-61
2023/06/11 08:56:39;;;;;;;4.15;3.75;;;26.80;41.80;;;;;;4900493;28;45406;-60
2023/06/11 08:59:05;;;;;;;4.28;3.83;;;26.80;41.80;;;;;;4901949;28;45311;-60
2023/06/11 09:01:31;;;;;;;4.45;3.85;;;26.90;41.90;;;;;;4902955;28;45190;-59
2023/06/11 09:03:57;;;;;;;5.43;4.13;;;26.90;41.90;;;;;;4864873;28;46774;-60
2023/06/11 09:06:23;;;;;;;6.45;4.15;;;26.90;41.90;;;;;;4901724;28;46687;-59
2023/06/11 09:08:59;;;;;;;5.05;4.13;;;26.90;41.90;;;;;;4898620;28;44771;-59
2023/06/11 09:11:37;;;;;;;4.38;4.00;;;26.90;41.60;;;;;;4914183;28;45459;-59
2023/06/11 09:14:03;;;;;;;5.90;3.80;;;27.00;41.60;;;;;;4899088;28;44831;-59
2023/06/11 09:16:36;;;;;;;4.43;3.90;;;27.00;41.90;;;;;;4891614;28;45575;-59
2023/06/11 09:19:01;;;;;;;3.95;3.35;;;27.00;42.00;;;;;;4904362;28;44807;-60
2023/06/11 09:21:27;;;;;;;5.22;3.83;;;27.00;41.90;;;;;;4904990;28;45460;-59
2023/06/11 09:23:53;;;;;;;4.65;4.10;;;27.00;41.90;;;;;;4882220;28;44812;-60
2023/06/11 09:26:18;;;;;;;5.78;4.00;;;27.00;41.90;;;;;;4894767;28;46094;-60
2023/06/11 09:28:46;;;;;;;7.03;3.95;;;27.10;42.00;;;;;;4899823;28;44770;-60
2023/06/11 09:31:11;;;;;;;9.07;4.00;;;27.10;42.00;;;;;;4891800;28;45101;-60
2023/06/11 09:33:37;;;;;;;7.10;4.13;;;27.10;42.00;;;;;;4894621;28;46711;-58
2023/06/11 09:36:03;;;;;;;4.75;4.22;;;27.10;42.00;;;;;;4904845;28;45881;-59
2023/06/11 09:38:32;;;;;;;5.25;4.43;;;27.10;41.90;;;;;;4880900;28;45427;-62
2023/06/11 09:40:58;;;;;;;5.35;4.03;;;27.20;41.90;;;;;;4874071;28;45730;-59
2023/06/11 09:43:24;;;;;;;5.95;4.10;;;27.20;42.00;;;;;;4895401;28;45344;-60
2023/06/11 09:45:52;;;;;;;4.22;3.83;;;27.20;42.00;;;;;;4884678;28;45434;-60
2023/06/11 09:48:18;;;;;;;4.47;4.07;;;27.20;41.90;;;;;;4877600;28;45249;-59
2023/06/11 09:50:44;;;;;;;4.30;3.90;;;27.20;41.90;;;;;;4875977;28;45861;-61
2023/06/11 09:53:10;;;;;;;7.03;3.80;;;27.20;41.90;;;;;;4904726;28;45576;-59
2023/06/11 09:55:36;;;;;;;5.53;4.18;;;27.20;41.90;;;;;;4895276;28;46288;-60
2023/06/11 09:58:04;;;;;;;8.55;4.00;;;27.20;41.90;;;;;;4909323;28;45630;-59
2023/06/11 10:00:30;;;;;;;4.65;3.40;;;27.30;41.90;;;;;;4901852;28;45531;-62
2023/06/11 10:02:58;;;;;;;5.30;4.18;;;27.30;42.00;;;;;;4880735;28;45012;-60
2023/06/11 10:05:24;;;;;;;5.63;3.88;;;27.30;42.00;;;;;;4895366;28;45197;-60
2023/06/11 10:08:27;;;;;;;5.78;3.70;;;27.30;41.90;;;;;;4931395;28;45277;-59
2023/06/11 10:10:58;;;;;;;4.50;3.85;;;27.30;41.60;;;;;;4895444;28;45491;-60
2023/06/11 10:13:32;;;;;;;4.30;3.58;;;27.30;41.70;;;;;;4862573;28;45209;-58
2023/06/11 10:16:02;;;;;;;4.80;3.75;;;27.40;41.70;;;;;;4891616;28;45344;-59
2023/06/11 10:18:27;;;;;;;4.35;3.95;;;27.30;41.80;;;;;;4908093;28;45255;-60
2023/06/11 10:20:59;;;;;;;3.67;3.38;;;27.40;41.80;;;;;;4885466;28;44876;-61
2023/06/11 10:23:35;;;;;;;5.15;4.32;;;27.40;41.70;;;;;;4907633;28;45301;-58
2023/06/11 10:26:00;;;;;;;5.82;3.90;;;27.40;41.60;;;;;;4879615;28;46564;-58
2023/06/11 10:28:36;;;;;;;6.22;4.10;;;27.40;41.80;;;;;;4881105;28;45124;-60
2023/06/11 10:31:03;;;;;;;3.70;3.40;;;27.40;41.50;;;;;;4873420;28;45214;-58
2023/06/11 10:33:46;;;;;;;4.03;3.63;;;27.50;41.80;;;;;;4882532;28;44904;-58
2023/06/11 10:36:23;;;;;;;3.72;3.42;;;27.50;41.50;;;;;;4893341;28;45625;-58
2023/06/11 10:38:48;;;;;;;4.32;3.85;;;27.50;41.50;;;;;;4907709;28;45283;-61
2023/06/11 10:41:14;;;;;;;4.55;3.90;;;27.50;41.80;;;;;;4902391;28;45333;-60
2023/06/11 10:43:40;;;;;;;6.57;3.50;;;27.50;41.80;;;;;;4891571;28;46064;-60
2023/06/11 10:46:11;;;;;;;4.00;3.60;;;27.50;41.70;;;;;;4871856;28;45343;-59
2023/06/11 10:48:41;;;;;;;4.35;3.58;;;27.50;41.60;;;;;;4893974;28;45338;-58
2023/06/11 10:51:12;;;;;;;5.10;3.83;;;27.50;41.60;;;;;;4889716;28;45335;-59
2023/06/11 10:53:39;;;;;;;4.05;3.65;;;27.50;41.60;;;;;;4861233;28;45731;-60
2023/06/11 10:56:08;;;;;;;5.15;3.72;;;27.50;41.60;;;;;;4892537;28;45831;-60
2023/06/11 10:58:34;;;;;;;4.90;3.55;;;27.60;41.60;;;;;;4894331;28;45865;-61
2023/06/11 11:01:00;;;;;;;4.00;3.65;;;27.60;41.60;;;;;;4925458;28;45321;-58
2023/06/11 11:03:29;;;;;;;4.82;4.00;;;27.60;41.50;;;;;;4902209;28;46033;-59
2023/06/11 11:05:55;;;;;;;4.07;3.70;;;27.60;41.40;;;;;;4907360;28;46456;-59
2023/06/11 11:08:21;;;;;;;4.07;3.67;;;27.60;41.50;;;;;;4900601;28;44829;-59
2023/06/11 11:10:55;;;;;;;4.55;3.80;;;27.60;41.50;;;;;;4891050;28;45341;-60
2023/06/11 11:13:21;;;;;;;6.13;3.58;;;27.70;41.40;;;;;;4911925;28;44622;-60
2023/06/11 11:15:46;;;;;;;6.47;3.47;;;27.70;41.50;;;;;;4894523;28;45615;-59
2023/06/11 11:18:12;;;;;;;4.20;3.47;;;27.70;41.40;;;;;;4881381;28;45234;-60
2023/06/11 11:20:38;;;;;;;4.07;3.17;;;27.70;41.40;;;;;;4896193;28;45182;-61
2023/06/11 11:23:05;;;;;;;3.75;3.45;;;27.70;41.30;;;;;;4896648;28;46092;-60
2023/06/11 11:25:32;;;;;;;4.07;3.47;;;27.70;41.30;;;;;;4880587;28;45633;-61
2023/06/11 11:27:57;;;;;;;3.95;3.47;;;27.70;41.30;;;;;;4883786;28;45083;-60
2023/06/11 11:30:28;;;;;;;3.72;3.38;;;27.70;41.30;;;;;;4881467;28;45582;-59
2023/06/11 11:32:54;;;;;;;4.43;3.83;;;27.70;41.30;;;;;;4884177;28;45090;-58
2023/06/11 11:35:20;;;;;;;4.40;4.00;;;27.70;41.20;;;;;;4897384;28;46478;-60
2023/06/11 11:37:46;;;;;;;4.53;4.10;;;27.70;41.20;;;;;;4914964;28;45278;-60
2023/06/11 11:40:12;;;;;;;3.78;3.42;;;27.80;41.30;;;;;;4877852;28;44892;-58
2023/06/11 11:42:47;;;;;;;4.03;3.53;;;27.80;41.30;;;;;;4888946;28;45523;-60
2023/06/11 11:45:14;;;;;;;5.03;3.30;;;27.80;41.10;;;;;;4909088;28;46826;-59
2023/06/11 11:47:44;;;;;;;4.32;3.92;;;27.80;41.40;;;;;;4898425;28;45292;-60
2023/06/11 11:50:21;;;;;;;4.15;3.30;;;27.80;41.40;;;;;;4875675;28;45132;-62
2023/06/11 11:53:18;;;;;;;3.53;3.22;;;27.80;41.20;;;;;;4897725;28;45132;-59
2023/06/11 11:55:47;;;;;;;3.30;3.00;;;27.80;41.20;;;;;;4891390;28;45347;-59
2023/06/11 11:58:14;;;;;;;4.80;3.47;;;27.80;41.30;;;;;;4904093;28;44670;-58
2023/06/11 12:00:48;;;;;;;4.82;3.60;;;27.80;41.40;;;;;;4873984;28;45663;-62
2023/06/11 12:03:14;;;;;;;4.18;3.78;;;27.80;41.20;;;;;;4899909;28;45401;-60
2023/06/11 12:05:40;;;;;;;3.70;3.40;;;27.80;41.30;;;;;;4892769;28;45370;-61
2023/06/11 12:08:06;;;;;;;3.45;3.15;;;27.90;41.40;;;;;;4903320;28;44898;-60
2023/06/11 12:10:31;;;;;;;4.30;3.90;;;27.90;41.30;;;;;;4895903;28;45225;-58
2023/06/11 12:13:00;;;;;;;5.00;3.95;;;27.90;41.30;;;;;;4905779;28;45448;-60
2023/06/11 12:15:26;;;;;;;4.93;3.90;;;27.90;41.20;;;;;;4906460;28;45368;-61
2023/06/11 12:17:52;;;;;;;3.80;3.42;;;27.90;41.30;;;;;;4898781;28;45397;-60
2023/06/11 12:20:18;;;;;;;3.67;3.35;;;27.90;41.20;;;;;;4899149;28;45343;-60
2023/06/11 12:22:43;;;;;;;3.78;3.40;;;27.90;41.20;;;;;;4918312;28;45542;-61
2023/06/11 12:25:09;;;;;;;5.40;3.65;;;27.90;41.20;;;;;;4908316;28;45521;-61
2023/06/11 12:27:37;;;;;;;3.65;3.35;;;28.00;41.20;;;;;;4898161;28;44938;-60
2023/06/11 12:30:03;;;;;;;3.60;3.30;;;28.00;41.20;;;;;;4910420;28;45386;-62
2023/06/11 12:32:32;;;;;;;6.10;3.30;;;28.00;41.30;;;;;;4874595;29;45653;-59
2023/06/11 12:34:58;;;;;;;3.38;3.08;;;28.00;41.20;;;;;;4907217;28;47399;-59
2023/06/11 12:37:24;;;;;;;3.67;3.10;;;28.00;41.20;;;;;;4893205;28;45469;-61
2023/06/11 12:39:50;;;;;;;3.83;3.42;;;28.00;41.20;;;;;;4888873;28;46066;-60
2023/06/11 12:42:16;;;;;;;3.83;3.03;;;28.00;41.20;;;;;;4890774;28;45826;-60
2023/06/11 12:44:42;;;;;;;3.78;3.25;;;28.00;41.20;;;;;;4909746;28;46138;-61
2023/06/11 12:47:08;;;;;;;3.70;3.30;;;28.00;41.20;;;;;;4868354;28;45362;-60
2023/06/11 12:49:34;;;;;;;3.85;3.42;;;28.00;41.20;;;;;;4878374;28;45619;-59
2023/06/11 12:51:59;;;;;;;3.80;3.42;;;28.00;41.20;;;;;;4875609;28;45173;-60
2023/06/11 12:54:25;;;;;;;4.45;3.38;;;28.00;41.20;;;;;;4912577;28;45398;-60
2023/06/11 12:56:51;;;;;;;3.63;3.33;;;28.00;41.20;;;;;;4905926;28;45545;-59
2023/06/11 12:59:17;;;;;;;3.67;3.33;;;28.00;41.20;;;;;;4894382;28;45101;-59
2023/06/11 13:01:43;;;;;;;5.88;3.40;;;28.00;41.70;;;;;;4898196;28;45151;-59
2023/06/11 13:04:09;;;;;;;3.15;2.75;;;28.00;41.30;;;;;;4889620;28;45683;-61
2023/06/11 13:06:35;;;;;;;4.40;2.92;;;27.90;41.50;;;;;;4902191;28;46573;-59
2023/06/11 13:09:00;;;;;;;3.28;2.65;;;27.80;41.70;;;;;;4924074;28;45330;-62
2023/06/11 13:11:26;;;;;;;5.75;2.80;;;27.70;41.90;;;;;;4890465;28;45432;-61
2023/06/11 13:13:52;;;;;;;6.05;3.30;;;27.70;42.10;;;;;;4892480;28;45513;-61
2023/06/11 13:16:17;;;;;;;3.88;2.70;;;27.60;42.30;;;;;;4904953;28;44875;-59
2023/06/11 13:18:43;;;;;;;3.30;3.00;;;27.60;42.50;;;;;;4895420;28;45303;-58
2023/06/11 13:21:08;;;;;;;3.40;3.10;;;27.60;42.70;;;;;;4905502;28;45552;-60
2023/06/11 13:23:34;;;;;;;4.78;2.95;;;27.70;42.80;;;;;;4910820;28;45648;-60
2023/06/11 13:26:00;;;;;;;3.88;2.90;;;27.70;42.90;;;;;;4870849;28;44996;-60
2023/06/11 13:28:29;;;;;;;5.05;2.80;;;27.80;43.10;;;;;;4919145;28;45095;-61
2023/06/11 13:30:55;;;;;;;3.90;2.92;;;27.80;43.20;;;;;;4902073;28;45603;-59
2023/06/11 13:33:22;;;;;;;3.55;3.22;;;27.80;43.30;;;;;;4921972;28;45235;-58
2023/06/11 13:35:48;;;;;;;3.22;2.83;;;27.80;43.30;;;;;;4906630;28;44805;-61
2023/06/11 13:38:14;;;;;;;4.18;2.97;;;27.80;43.30;;;;;;4914055;28;45549;-63
2023/06/11 13:40:39;;;;;;;5.57;2.97;;;27.80;43.40;;;;;;4902014;28;45172;-61
2023/06/11 13:43:05;;;;;;;3.15;2.90;;;27.80;43.50;;;;;;4897683;28;45834;-61
2023/06/11 13:45:30;;;;;;;2.88;2.67;;;27.80;43.50;;;;;;4900354;28;45348;-60
2023/06/11 13:48:01;;;;;;;2.80;2.55;;;27.80;43.70;;;;;;4873673;28;45450;-60
2023/06/11 13:50:27;;;;;;;13.40;3.47;;;27.90;43.80;;;;;;4901161;28;45352;-60
2023/06/11 13:52:52;;;;;;;3.58;3.03;;;27.90;43.80;;;;;;4890488;28;47404;-61
2023/06/11 13:55:18;;;;;;;4.20;2.88;;;27.90;43.80;;;;;;4905002;28;45275;-61
2023/06/11 13:57:44;;;;;;;3.17;2.92;;;27.90;43.80;;;;;;4885897;28;45132;-60
2023/06/11 14:00:11;;;;;;;4.95;2.70;;;28.00;43.90;;;;;;4886359;28;45005;-60
2023/06/11 14:02:36;;;;;;;3.17;2.88;;;28.00;43.90;;;;;;4900005;28;47234;-60
2023/06/11 14:05:02;;;;;;;4.07;3.28;;;28.00;43.80;;;;;;4908331;28;45271;-62
2023/06/11 14:07:28;;;;;;;4.88;2.85;;;28.00;43.90;;;;;;4875957;28;45227;-61
2023/06/11 14:09:55;;;;;;;3.35;2.95;;;28.00;43.90;;;;;;4922273;28;44943;-61
2023/06/11 14:12:21;;;;;;;3.25;2.65;;;28.00;44.60;;;;;;4905695;28;45453;-61
2023/06/11 14:14:46;;;;;;;3.13;2.83;;;28.00;44.00;;;;;;4909255;28;45203;-61
2023/06/11 14:17:12;;;;;;;3.20;2.90;;;28.00;44.00;;;;;;4899422;28;44731;-63
2023/06/11 14:19:38;;;;;;;3.17;2.88;;;28.10;44.00;;;;;;4894798;28;45318;-61
2023/06/11 14:22:03;;;;;;;4.82;3.17;;;28.10;44.00;;;;;;4904895;28;45621;-60
2023/06/11 14:24:29;;;;;;;3.40;3.00;;;28.10;44.00;;;;;;4877710;28;45580;-63
2023/06/11 14:26:55;;;;;;;3.30;3.00;;;28.10;44.00;;;;;;4908965;28;45442;-60
2023/06/11 14:29:20;;;;;;;4.00;2.80;;;28.10;44.00;;;;;;4891620;28;45352;-62
2023/06/11 14:31:46;;;;;;;2.72;2.42;;;28.10;44.00;;;;;;4896084;28;45083;-61
2023/06/11 14:34:12;;;;;;;3.75;3.00;;;28.10;44.00;;;;;;4887982;28;45191;-59
2023/06/11 14:36:37;;;;;;;4.75;2.85;;;28.10;43.90;;;;;;4889067;28;45261;-59
2023/06/11 14:39:03;;;;;;;4.90;2.80;;;28.10;44.00;;;;;;4907133;28;45442;-61
2023/06/11 14:41:28;;;;;;;3.40;3.05;;;28.20;44.00;;;;;;4905151;28;46143;-60
2023/06/11 14:43:54;;;;;;;3.05;2.67;;;28.10;44.00;;;;;;4905849;28;45826;-62
2023/06/11 14:46:19;;;;;;;4.30;2.97;;;28.20;44.00;;;;;;4881174;28;45638;-63
2023/06/11 14:48:45;;;;;;;3.45;3.15;;;28.20;43.90;;;;;;4877220;28;45626;-62
2023/06/11 14:51:10;;;;;;;3.25;2.95;;;28.30;44.00;;;;;;4902825;28;45436;-62
2023/06/11 14:53:36;;;;;;;4.75;2.90;;;28.20;43.90;;;;;;4894680;28;45575;-61
2023/06/11 14:56:01;;;;;;;3.63;3.30;;;28.20;43.90;;;;;;4901731;28;45568;-63
2023/06/11 14:58:27;;;;;;;2.97;2.53;;;28.20;43.90;;;;;;4895040;28;45417;-62
2023/06/11 15:00:52;;;;;;;3.65;3.05;;;28.30;43.90;;;;;;4924481;23;45336;-64
2023/06/11 15:03:18;;;;;;;3.25;2.95;;;28.30;43.90;;;;;;4944664;28;45510;-62
2023/06/11 15:05:44;;;;;;;3.42;2.97;;;28.20;43.80;;;;;;4939428;28;45360;-62
2023/06/11 15:08:10;;;;;;;3.20;2.90;;;28.30;43.80;;;;;;4946317;28;44747;-62
2023/06/11 15:10:35;;;;;;;3.22;2.60;;;28.30;43.80;;;;;;4945504;28;45588;-63
2023/06/11 15:13:01;;;;;;;3.95;3.10;;;28.30;43.80;;;;;;4932931;28;45168;-62
2023/06/11 15:15:26;;;;;;;6.03;2.97;;;28.30;43.70;;;;;;4940720;28;45190;-63
2023/06/11 15:17:52;;;;;;;3.45;2.97;;;28.30;43.70;;;;;;4896778;28;45737;-63
2023/06/11 15:20:18;;;;;;;3.03;2.80;;;28.30;43.70;;;;;;4912567;28;45959;-65
2023/06/11 15:22:44;;;;;;;3.45;3.13;;;28.30;43.70;;;;;;4950306;28;44801;-59
2023/06/11 15:25:09;;;;;;;3.08;2.85;;;28.30;43.70;;;;;;4944762;28;45221;-62
2023/06/11 15:27:35;;;;;;;3.22;2.72;;;28.30;43.60;;;;;;4947112;28;45284;-62
2023/06/11 15:30:01;;;;;;;3.58;2.70;;;28.30;43.60;;;;;;4911534;28;45552;-62
2023/06/11 15:32:27;;;;;;;3.30;3.00;;;28.40;43.60;;;;;;4904303;28;46273;-63
2023/06/11 15:34:52;;;;;;;3.40;3.10;;;28.40;43.60;;;;;;4944687;28;44965;-62
2023/06/11 15:37:18;;;;;;;2.78;2.47;;;28.40;43.60;;;;;;4939550;28;45306;-63
2023/06/11 15:39:50;;;;;;;3.25;2.88;;;28.40;44.20;;;;;;4912221;28;46189;-63
2023/06/11 15:42:17;;;;;;;3.97;2.92;;;28.40;43.60;;;;;;4926572;28;44803;-63